sensor_id;sensor_type;location;lat;lon;timestamp;temperature;humidity
23283;DHT22;11810;51.178;3.878;2022-08-11T00:00:41;19.40;99.90
23283;DHT22;11810;51.178;3.878;2022-08-11T00:03:12;19.50;99.90
23283;DHT22;11810;51.178;3.878;2022-08-11T00:05:46;19.50;99.90
23283;DHT22;11810;51.178;3.878;2022-08-11T00:10:52;19.50;99.90
23283;DHT22;11810;51.178;3.878;2022-08-11T00:13:19;19.50;99.90
23283;DHT22;11810;51.178;3.878;2022-08-11T00:15:46;19.40;99.90
23283;DHT22;11810;51.178;3.878;2022-08-11T00:18:12;19.30;99.90
23283;DHT22;11810;51.178;3.878;2022-08-11T00:20:43;19.30;99.90
23283;DHT22;11810;51.178;3.878;2022-08-11T00:23:14;19.20;99.90
23283;DHT22;11810;51.178;3.878;2022-08-11T00:25:44;19.00;99.90
23283;DHT22;11810;51.178;3.878;2022-08-11T00:28:30;19.00;99.90
23283;DHT22;11810;51.178;3.878;2022-08-11T00:31:07;19.00;99.90
23283;DHT22;11810;51.178;3.878;2022-08-11T00:33:41;18.90;99.90
23283;DHT22;11810;51.178;3.878;2022-08-11T00:36:10;18.80;99.90
23283;DHT22;11810;51.178;3.878;2022-08-11T00:38:41;18.70;99.90
23283;DHT22;11810;51.178;3.878;2022-08-11T00:41:43;18.70;99.90
23283;DHT22;11810;51.178;3.878;2022-08-11T00:49:40;18.60;99.90
23283;DHT22;11810;51.178;3.878;2022-08-11T01:00:31;18.50;99.90
23283;DHT22;11810;51.178;3.878;2022-08-11T01:11:58;18.20;99.90
23283;DHT22;11810;51.178;3.878;2022-08-11T01:14:46;18.20;99.90
23283;DHT22;11810;51.178;3.878;2022-08-11T01:45:05;17.70;99.90
23283;DHT22;11810;51.178;3.878;2022-08-11T01:50:44;17.60;99.90
23283;DHT22;11810;51.178;3.878;2022-08-11T01:58:58;17.50;99.90
23283;DHT22;11810;51.178;3.878;2022-08-11T02:01:44;17.40;99.90
23283;DHT22;11810;51.178;3.878;2022-08-11T02:17:40;17.30;99.90
23283;DHT22;11810;51.178;3.878;2022-08-11T02:23:54;17.20;99.90
23283;DHT22;11810;51.178;3.878;2022-08-11T02:29:34;17.10;99.90
23283;DHT22;11810;51.178;3.878;2022-08-11T02:35:18;17.00;99.90
23283;DHT22;11810;51.178;3.878;2022-08-11T02:40:47;17.00;99.90
23283;DHT22;11810;51.178;3.878;2022-08-11T02:43:23;17.10;99.90
23283;DHT22;11810;51.178;3.878;2022-08-11T02:46:31;17.00;99.90
23283;DHT22;11810;51.178;3.878;2022-08-11T02:49:10;16.90;99.90
23283;DHT22;11810;51.178;3.878;2022-08-11T02:52:07;16.80;99.90
23283;DHT22;11810;51.178;3.878;2022-08-11T02:57:15;16.80;99.90
23283;DHT22;11810;51.178;3.878;2022-08-11T02:59:50;16.80;99.90
23283;DHT22;11810;51.178;3.878;2022-08-11T03:10:19;16.70;99.90
23283;DHT22;11810;51.178;3.878;2022-08-11T03:13:18;16.70;99.90
23283;DHT22;11810;51.178;3.878;2022-08-11T03:22:25;16.50;99.90
23283;DHT22;11810;51.178;3.878;2022-08-11T03:28:32;16.50;99.90
23283;DHT22;11810;51.178;3.878;2022-08-11T03:31:26;16.40;99.90
23283;DHT22;11810;51.178;3.878;2022-08-11T03:34:00;16.40;99.90
23283;DHT22;11810;51.178;3.878;2022-08-11T03:39:31;16.30;99.90
23283;DHT22;11810;51.178;3.878;2022-08-11T04:00:07;16.40;99.90
23283;DHT22;11810;51.178;3.878;2022-08-11T04:28:39;16.00;99.90
23283;DHT22;11810;51.178;3.878;2022-08-11T04:58:29;15.90;99.90
23283;DHT22;11810;51.178;3.878;2022-08-11T05:04:26;16.00;99.90
23283;DHT22;11810;51.178;3.878;2022-08-11T05:15:20;17.00;99.90
23283;DHT22;11810;51.178;3.878;2022-08-11T05:18:21;17.20;99.90
23283;DHT22;11810;51.178;3.878;2022-08-11T05:21:11;17.60;99.90
23283;DHT22;11810;51.178;3.878;2022-08-11T05:24:08;17.80;99.90
23283;DHT22;11810;51.178;3.878;2022-08-11T05:27:01;18.20;99.90
23283;DHT22;11810;51.178;3.878;2022-08-11T05:30:05;18.60;99.90
23283;DHT22;11810;51.178;3.878;2022-08-11T05:33:16;19.00;99.90
23283;DHT22;11810;51.178;3.878;2022-08-11T05:36:59;19.50;99.90
23283;DHT22;11810;51.178;3.878;2022-08-11T05:39:12;19.90;99.90
23283;DHT22;11810;51.178;3.878;2022-08-11T05:41:58;20.30;99.90
23283;DHT22;11810;51.178;3.878;2022-08-11T05:44:47;20.80;99.90
23283;DHT22;11810;51.178;3.878;2022-08-11T05:47:33;21.20;99.90
23283;DHT22;11810;51.178;3.878;2022-08-11T05:50:21;21.80;99.90
23283;DHT22;11810;51.178;3.878;2022-08-11T05:53:09;22.20;99.90
23283;DHT22;11810;51.178;3.878;2022-08-11T05:55:56;22.50;99.90
23283;DHT22;11810;51.178;3.878;2022-08-11T05:58:50;23.10;99.90
23283;DHT22;11810;51.178;3.878;2022-08-11T06:01:23;23.80;99.90
23283;DHT22;11810;51.178;3.878;2022-08-11T06:03:52;24.30;99.90
23283;DHT22;11810;51.178;3.878;2022-08-11T06:06:38;24.60;99.90
23283;DHT22;11810;51.178;3.878;2022-08-11T06:09:06;25.20;99.90
23283;DHT22;11810;51.178;3.878;2022-08-11T06:11:40;25.60;99.90
23283;DHT22;11810;51.178;3.878;2022-08-11T06:14:07;25.80;99.90
23283;DHT22;11810;51.178;3.878;2022-08-11T06:16:36;26.00;99.90
23283;DHT22;11810;51.178;3.878;2022-08-11T06:19:03;26.40;99.90
23283;DHT22;11810;51.178;3.878;2022-08-11T06:21:33;26.60;99.90
23283;DHT22;11810;51.178;3.878;2022-08-11T06:24:13;27.40;99.90
23283;DHT22;11810;51.178;3.878;2022-08-11T06:26:48;27.60;99.90
23283;DHT22;11810;51.178;3.878;2022-08-11T06:29:15;27.80;99.90
23283;DHT22;11810;51.178;3.878;2022-08-11T06:32:03;28.10;99.90
23283;DHT22;11810;51.178;3.878;2022-08-11T06:40:32;29.20;99.90
23283;DHT22;11810;51.178;3.878;2022-08-11T06:43:18;29.50;99.90
23283;DHT22;11810;51.178;3.878;2022-08-11T06:46:04;29.90;99.90
23283;DHT22;11810;51.178;3.878;2022-08-11T06:48:33;29.70;99.90
23283;DHT22;11810;51.178;3.878;2022-08-11T06:51:03;29.90;99.90
23283;DHT22;11810;51.178;3.878;2022-08-11T06:53:50;30.40;99.90
23283;DHT22;11810;51.178;3.878;2022-08-11T06:56:36;30.50;99.90
23283;DHT22;11810;51.178;3.878;2022-08-11T06:59:22;30.80;99.90
23283;DHT22;11810;51.178;3.878;2022-08-11T07:12:59;32.00;99.90
23283;DHT22;11810;51.178;3.878;2022-08-11T07:15:45;32.60;99.90
23283;DHT22;11810;51.178;3.878;2022-08-11T07:18:34;32.80;99.90
23283;DHT22;11810;51.178;3.878;2022-08-11T07:21:26;33.20;99.90
23283;DHT22;11810;51.178;3.878;2022-08-11T07:24:19;32.80;99.90
23283;DHT22;11810;51.178;3.878;2022-08-11T07:27:10;33.50;99.90
23283;DHT22;11810;51.178;3.878;2022-08-11T07:30:12;33.50;99.50
23283;DHT22;11810;51.178;3.878;2022-08-11T07:33:05;33.30;99.20
23283;DHT22;11810;51.178;3.878;2022-08-11T07:35:34;33.40;98.50
23283;DHT22;11810;51.178;3.878;2022-08-11T07:38:27;33.60;98.20
23283;DHT22;11810;51.178;3.878;2022-08-11T07:41:13;34.20;98.00
23283;DHT22;11810;51.178;3.878;2022-08-11T07:43:45;34.30;97.70
23283;DHT22;11810;51.178;3.878;2022-08-11T07:46:13;34.50;97.30
23283;DHT22;11810;51.178;3.878;2022-08-11T07:48:58;34.50;96.60
23283;DHT22;11810;51.178;3.878;2022-08-11T07:51:45;34.50;95.80
23283;DHT22;11810;51.178;3.878;2022-08-11T07:54:30;35.10;95.50
23283;DHT22;11810;51.178;3.878;2022-08-11T07:56:57;35.40;94.90
23283;DHT22;11810;51.178;3.878;2022-08-11T07:59:24;35.50;94.20
23283;DHT22;11810;51.178;3.878;2022-08-11T08:02:11;35.80;93.70
23283;DHT22;11810;51.178;3.878;2022-08-11T08:04:57;36.10;93.20
23283;DHT22;11810;51.178;3.878;2022-08-11T08:07:42;36.30;92.10
23283;DHT22;11810;51.178;3.878;2022-08-11T08:10:28;36.80;90.80
23283;DHT22;11810;51.178;3.878;2022-08-11T08:13:14;36.60;90.80
23283;DHT22;11810;51.178;3.878;2022-08-11T08:15:59;36.40;90.90
23283;DHT22;11810;51.178;3.878;2022-08-11T08:18:44;36.90;90.00
23283;DHT22;11810;51.178;3.878;2022-08-11T08:21:11;37.10;88.60
23283;DHT22;11810;51.178;3.878;2022-08-11T08:23:45;38.10;87.50
23283;DHT22;11810;51.178;3.878;2022-08-11T08:26:15;37.70;88.20
23283;DHT22;11810;51.178;3.878;2022-08-11T08:29:05;37.60;87.50
23283;DHT22;11810;51.178;3.878;2022-08-11T08:31:50;37.80;87.50
23283;DHT22;11810;51.178;3.878;2022-08-11T08:34:18;38.90;83.80
23283;DHT22;11810;51.178;3.878;2022-08-11T08:36:46;39.10;83.30
23283;DHT22;11810;51.178;3.878;2022-08-11T08:39:13;38.70;83.00
23283;DHT22;11810;51.178;3.878;2022-08-11T08:41:42;38.90;81.30
23283;DHT22;11810;51.178;3.878;2022-08-11T08:44:11;39.40;79.10
23283;DHT22;11810;51.178;3.878;2022-08-11T08:46:47;39.70;79.10
23283;DHT22;11810;51.178;3.878;2022-08-11T08:49:16;39.60;78.20
23283;DHT22;11810;51.178;3.878;2022-08-11T08:51:44;40.20;76.60
23283;DHT22;11810;51.178;3.878;2022-08-11T08:54:22;40.50;73.20
23283;DHT22;11810;51.178;3.878;2022-08-11T08:56:54;40.30;72.30
23283;DHT22;11810;51.178;3.878;2022-08-11T08:59:22;40.50;71.40
23283;DHT22;11810;51.178;3.878;2022-08-11T09:02:03;40.50;70.40
23283;DHT22;11810;51.178;3.878;2022-08-11T09:04:30;40.80;68.60
23283;DHT22;11810;51.178;3.878;2022-08-11T09:06:59;40.80;69.80
23283;DHT22;11810;51.178;3.878;2022-08-11T09:09:28;41.20;68.50
23283;DHT22;11810;51.178;3.878;2022-08-11T09:11:56;41.50;68.30
23283;DHT22;11810;51.178;3.878;2022-08-11T09:14:32;41.60;66.10
23283;DHT22;11810;51.178;3.878;2022-08-11T09:17:21;41.60;66.90
23283;DHT22;11810;51.178;3.878;2022-08-11T09:19:51;41.60;65.50
23283;DHT22;11810;51.178;3.878;2022-08-11T09:22:25;41.30;63.70
23283;DHT22;11810;51.178;3.878;2022-08-11T09:25:10;41.00;62.60
23283;DHT22;11810;51.178;3.878;2022-08-11T09:27:55;40.30;63.50
23283;DHT22;11810;51.178;3.878;2022-08-11T09:30:22;41.10;64.20
23283;DHT22;11810;51.178;3.878;2022-08-11T09:33:00;41.50;62.10
23283;DHT22;11810;51.178;3.878;2022-08-11T09:35:27;41.10;62.40
23283;DHT22;11810;51.178;3.878;2022-08-11T09:37:56;41.10;63.10
23283;DHT22;11810;51.178;3.878;2022-08-11T09:40:44;41.30;62.60
23283;DHT22;11810;51.178;3.878;2022-08-11T09:43:11;41.40;61.30
23283;DHT22;11810;51.178;3.878;2022-08-11T09:45:58;40.70;62.00
23283;DHT22;11810;51.178;3.878;2022-08-11T09:48:26;41.30;60.70
23283;DHT22;11810;51.178;3.878;2022-08-11T09:50:55;41.40;60.00
23283;DHT22;11810;51.178;3.878;2022-08-11T09:53:24;41.20;60.00
23283;DHT22;11810;51.178;3.878;2022-08-11T09:55:52;41.30;59.90
23283;DHT22;11810;51.178;3.878;2022-08-11T09:58:18;41.00;59.40
23283;DHT22;11810;51.178;3.878;2022-08-11T10:00:47;40.60;59.40
23283;DHT22;11810;51.178;3.878;2022-08-11T10:03:17;40.60;60.20
23283;DHT22;11810;51.178;3.878;2022-08-11T10:05:48;40.80;59.00
23283;DHT22;11810;51.178;3.878;2022-08-11T10:08:37;41.10;59.80
23283;DHT22;11810;51.178;3.878;2022-08-11T10:11:05;41.30;57.70
23283;DHT22;11810;51.178;3.878;2022-08-11T10:13:34;41.10;58.10
23283;DHT22;11810;51.178;3.878;2022-08-11T10:16:26;41.10;57.60
23283;DHT22;11810;51.178;3.878;2022-08-11T10:18:54;40.90;57.90
23283;DHT22;11810;51.178;3.878;2022-08-11T10:21:31;40.80;57.90
23283;DHT22;11810;51.178;3.878;2022-08-11T10:24:00;40.80;57.50
23283;DHT22;11810;51.178;3.878;2022-08-11T10:26:47;41.00;58.40
23283;DHT22;11810;51.178;3.878;2022-08-11T10:29:25;41.60;57.40
23283;DHT22;11810;51.178;3.878;2022-08-11T10:32:11;41.80;57.10
23283;DHT22;11810;51.178;3.878;2022-08-11T10:34:56;41.90;56.30
23283;DHT22;11810;51.178;3.878;2022-08-11T10:37:24;41.80;56.50
23283;DHT22;11810;51.178;3.878;2022-08-11T10:39:51;41.90;56.00
23283;DHT22;11810;51.178;3.878;2022-08-11T10:42:18;41.50;57.00
23283;DHT22;11810;51.178;3.878;2022-08-11T10:45:05;42.20;56.30
23283;DHT22;11810;51.178;3.878;2022-08-11T10:47:55;42.10;55.90
23283;DHT22;11810;51.178;3.878;2022-08-11T10:50:22;42.10;55.40
23283;DHT22;11810;51.178;3.878;2022-08-11T10:53:08;42.20;55.70
23283;DHT22;11810;51.178;3.878;2022-08-11T10:55:54;42.00;55.70
23283;DHT22;11810;51.178;3.878;2022-08-11T10:58:39;42.30;54.90
23283;DHT22;11810;51.178;3.878;2022-08-11T11:03:56;43.00;55.10
23283;DHT22;11810;51.178;3.878;2022-08-11T11:09:30;42.50;54.00
23283;DHT22;11810;51.178;3.878;2022-08-11T11:14:47;42.10;54.50
23283;DHT22;11810;51.178;3.878;2022-08-11T11:17:44;42.30;54.30
23283;DHT22;11810;51.178;3.878;2022-08-11T11:25:45;41.30;53.30
23283;DHT22;11810;51.178;3.878;2022-08-11T11:36:57;42.40;53.50
23283;DHT22;11810;51.178;3.878;2022-08-11T11:39:26;42.30;53.40
23283;DHT22;11810;51.178;3.878;2022-08-11T11:41:55;42.50;53.40
23283;DHT22;11810;51.178;3.878;2022-08-11T11:44:22;42.80;53.30
23283;DHT22;11810;51.178;3.878;2022-08-11T11:46:50;42.90;52.70
23283;DHT22;11810;51.178;3.878;2022-08-11T11:49:18;42.60;52.80
23283;DHT22;11810;51.178;3.878;2022-08-11T11:51:49;43.30;52.30
23283;DHT22;11810;51.178;3.878;2022-08-11T11:54:24;43.20;52.20
23283;DHT22;11810;51.178;3.878;2022-08-11T11:56:54;42.30;51.70
23283;DHT22;11810;51.178;3.878;2022-08-11T11:59:24;41.50;53.00
23283;DHT22;11810;51.178;3.878;2022-08-11T12:02:25;41.00;53.10
23283;DHT22;11810;51.178;3.878;2022-08-11T12:04:52;41.20;52.80
23283;DHT22;11810;51.178;3.878;2022-08-11T12:07:19;41.30;53.00
23283;DHT22;11810;51.178;3.878;2022-08-11T12:10:05;41.50;52.80
23283;DHT22;11810;51.178;3.878;2022-08-11T12:12:32;41.60;52.70
23283;DHT22;11810;51.178;3.878;2022-08-11T12:15:17;41.70;52.60
23283;DHT22;11810;51.178;3.878;2022-08-11T12:17:45;41.80;52.50
23283;DHT22;11810;51.178;3.878;2022-08-11T12:20:13;42.10;51.90
23283;DHT22;11810;51.178;3.878;2022-08-11T12:22:44;42.20;52.10
23283;DHT22;11810;51.178;3.878;2022-08-11T12:25:29;42.30;52.20
23283;DHT22;11810;51.178;3.878;2022-08-11T12:28:13;42.70;52.20
23283;DHT22;11810;51.178;3.878;2022-08-11T12:30:40;42.40;52.20
23283;DHT22;11810;51.178;3.878;2022-08-11T12:33:07;42.10;51.70
23283;DHT22;11810;51.178;3.878;2022-08-11T12:35:34;41.50;52.10
23283;DHT22;11810;51.178;3.878;2022-08-11T12:38:01;41.60;51.90
23283;DHT22;11810;51.178;3.878;2022-08-11T12:40:28;41.60;52.00
23283;DHT22;11810;51.178;3.878;2022-08-11T12:43:18;41.90;51.70
23283;DHT22;11810;51.178;3.878;2022-08-11T12:46:09;41.80;51.00
23283;DHT22;11810;51.178;3.878;2022-08-11T12:48:43;41.80;50.80
23283;DHT22;11810;51.178;3.878;2022-08-11T12:51:32;42.00;51.10
23283;DHT22;11810;51.178;3.878;2022-08-11T12:54:34;41.50;51.60
23283;DHT22;11810;51.178;3.878;2022-08-11T12:57:13;41.10;52.00
23283;DHT22;11810;51.178;3.878;2022-08-11T13:00:00;40.90;52.50
23283;DHT22;11810;51.178;3.878;2022-08-11T13:02:49;40.80;52.80
23283;DHT22;11810;51.178;3.878;2022-08-11T13:05:34;40.70;52.40
23283;DHT22;11810;51.178;3.878;2022-08-11T13:08:02;40.40;52.60
23283;DHT22;11810;51.178;3.878;2022-08-11T13:10:32;39.90;52.80
23283;DHT22;11810;51.178;3.878;2022-08-11T13:13:18;40.30;52.40
23283;DHT22;11810;51.178;3.878;2022-08-11T13:15:48;40.80;52.50
23283;DHT22;11810;51.178;3.878;2022-08-11T13:18:21;41.20;52.10
23283;DHT22;11810;51.178;3.878;2022-08-11T13:20:50;40.80;52.10
23283;DHT22;11810;51.178;3.878;2022-08-11T13:23:18;40.60;51.40
23283;DHT22;11810;51.178;3.878;2022-08-11T13:25:45;40.70;51.60
23283;DHT22;11810;51.178;3.878;2022-08-11T13:28:12;40.90;51.90
23283;DHT22;11810;51.178;3.878;2022-08-11T13:30:39;40.70;52.00
23283;DHT22;11810;51.178;3.878;2022-08-11T13:33:24;40.80;51.80
23283;DHT22;11810;51.178;3.878;2022-08-11T13:35:52;40.50;51.40
23283;DHT22;11810;51.178;3.878;2022-08-11T13:38:21;40.20;52.00
23283;DHT22;11810;51.178;3.878;2022-08-11T13:40:49;40.20;52.70
23283;DHT22;11810;51.178;3.878;2022-08-11T13:43:19;39.90;52.00
23283;DHT22;11810;51.178;3.878;2022-08-11T13:45:46;39.80;52.30
23283;DHT22;11810;51.178;3.878;2022-08-11T13:48:15;39.50;52.40
23283;DHT22;11810;51.178;3.878;2022-08-11T13:50:43;38.90;53.10
23283;DHT22;11810;51.178;3.878;2022-08-11T13:53:29;38.50;53.00
23283;DHT22;11810;51.178;3.878;2022-08-11T13:55:59;38.60;52.80
23283;DHT22;11810;51.178;3.878;2022-08-11T13:58:26;38.20;53.00
23283;DHT22;11810;51.178;3.878;2022-08-11T14:00:53;37.80;53.10
23283;DHT22;11810;51.178;3.878;2022-08-11T14:03:24;37.60;53.90
23283;DHT22;11810;51.178;3.878;2022-08-11T14:05:52;37.80;53.50
23283;DHT22;11810;51.178;3.878;2022-08-11T14:08:30;38.30;53.10
23283;DHT22;11810;51.178;3.878;2022-08-11T14:11:01;38.60;52.50
23283;DHT22;11810;51.178;3.878;2022-08-11T14:13:46;38.60;52.30
23283;DHT22;11810;51.178;3.878;2022-08-11T14:16:28;38.80;52.60
23283;DHT22;11810;51.178;3.878;2022-08-11T14:19:01;38.50;52.30
23283;DHT22;11810;51.178;3.878;2022-08-11T14:21:29;38.50;52.40
23283;DHT22;11810;51.178;3.878;2022-08-11T14:24:18;38.30;52.50
23283;DHT22;11810;51.178;3.878;2022-08-11T14:26:47;38.50;52.00
23283;DHT22;11810;51.178;3.878;2022-08-11T14:29:16;38.90;52.30
23283;DHT22;11810;51.178;3.878;2022-08-11T14:31:49;39.30;52.10
23283;DHT22;11810;51.178;3.878;2022-08-11T14:34:19;39.00;52.30
23283;DHT22;11810;51.178;3.878;2022-08-11T14:36:51;39.10;52.30
23283;DHT22;11810;51.178;3.878;2022-08-11T14:39:26;39.00;52.90
23283;DHT22;11810;51.178;3.878;2022-08-11T14:42:01;39.10;52.30
23283;DHT22;11810;51.178;3.878;2022-08-11T14:45:03;39.10;52.20
23283;DHT22;11810;51.178;3.878;2022-08-11T14:47:51;39.20;52.30
23283;DHT22;11810;51.178;3.878;2022-08-11T14:50:20;38.50;52.60
23283;DHT22;11810;51.178;3.878;2022-08-11T14:55:23;38.00;52.50
23283;DHT22;11810;51.178;3.878;2022-08-11T14:58:09;38.60;52.10
23283;DHT22;11810;51.178;3.878;2022-08-11T15:00:36;38.70;52.00
23283;DHT22;11810;51.178;3.878;2022-08-11T15:03:04;38.40;52.90
23283;DHT22;11810;51.178;3.878;2022-08-11T15:08:14;38.20;51.90
23283;DHT22;11810;51.178;3.878;2022-08-11T15:10:41;37.90;51.90
23283;DHT22;11810;51.178;3.878;2022-08-11T15:13:08;37.60;52.40
23283;DHT22;11810;51.178;3.878;2022-08-11T15:15:35;37.70;52.50
23283;DHT22;11810;51.178;3.878;2022-08-11T15:18:21;37.70;52.30
23283;DHT22;11810;51.178;3.878;2022-08-11T15:20:51;37.60;51.70
23283;DHT22;11810;51.178;3.878;2022-08-11T15:23:39;37.60;51.50
23283;DHT22;11810;51.178;3.878;2022-08-11T15:26:37;37.50;51.40
23283;DHT22;11810;51.178;3.878;2022-08-11T15:29:29;37.30;50.90
23283;DHT22;11810;51.178;3.878;2022-08-11T15:32:16;37.30;51.50
23283;DHT22;11810;51.178;3.878;2022-08-11T15:35:02;37.20;52.00
23283;DHT22;11810;51.178;3.878;2022-08-11T15:37:52;37.20;52.10
23283;DHT22;11810;51.178;3.878;2022-08-11T15:40:28;37.30;52.50
23283;DHT22;11810;51.178;3.878;2022-08-11T15:46:11;37.40;52.70
23283;DHT22;11810;51.178;3.878;2022-08-11T15:48:46;37.40;52.60
23283;DHT22;11810;51.178;3.878;2022-08-11T15:51:16;37.10;52.60
23283;DHT22;11810;51.178;3.878;2022-08-11T15:53:52;37.10;52.30
23283;DHT22;11810;51.178;3.878;2022-08-11T15:56:22;36.80;52.90
23283;DHT22;11810;51.178;3.878;2022-08-11T15:58:50;36.50;53.20
23283;DHT22;11810;51.178;3.878;2022-08-11T16:01:38;36.50;52.70
23283;DHT22;11810;51.178;3.878;2022-08-11T16:04:25;36.40;52.60
23283;DHT22;11810;51.178;3.878;2022-08-11T16:09:34;36.00;52.90
23283;DHT22;11810;51.178;3.878;2022-08-11T16:12:05;35.60;53.10
23283;DHT22;11810;51.178;3.878;2022-08-11T16:14:40;35.40;53.60
23283;DHT22;11810;51.178;3.878;2022-08-11T16:17:27;35.20;53.60
23283;DHT22;11810;51.178;3.878;2022-08-11T16:19:56;35.30;53.70
23283;DHT22;11810;51.178;3.878;2022-08-11T16:22:29;35.20;53.50
23283;DHT22;11810;51.178;3.878;2022-08-11T16:25:08;35.00;53.60
23283;DHT22;11810;51.178;3.878;2022-08-11T16:27:41;34.80;54.10
23283;DHT22;11810;51.178;3.878;2022-08-11T16:30:09;34.80;54.10
23283;DHT22;11810;51.178;3.878;2022-08-11T16:32:38;34.60;54.20
23283;DHT22;11810;51.178;3.878;2022-08-11T16:35:32;34.50;54.30
23283;DHT22;11810;51.178;3.878;2022-08-11T16:38:19;34.60;54.30
23283;DHT22;11810;51.178;3.878;2022-08-11T16:41:10;34.40;54.70
23283;DHT22;11810;51.178;3.878;2022-08-11T16:43:44;34.50;54.90
23283;DHT22;11810;51.178;3.878;2022-08-11T16:46:29;34.20;55.20
23283;DHT22;11810;51.178;3.878;2022-08-11T16:49:47;34.00;55.50
23283;DHT22;11810;51.178;3.878;2022-08-11T16:52:12;33.80;55.50
23283;DHT22;11810;51.178;3.878;2022-08-11T16:54:40;33.60;55.70
23283;DHT22;11810;51.178;3.878;2022-08-11T16:57:19;33.50;56.00
23283;DHT22;11810;51.178;3.878;2022-08-11T17:00:07;33.40;55.90
23283;DHT22;11810;51.178;3.878;2022-08-11T17:02:45;33.20;55.80
23283;DHT22;11810;51.178;3.878;2022-08-11T17:05:33;33.20;56.00
23283;DHT22;11810;51.178;3.878;2022-08-11T17:08:24;33.10;56.20
23283;DHT22;11810;51.178;3.878;2022-08-11T17:11:10;33.00;56.50
23283;DHT22;11810;51.178;3.878;2022-08-11T17:13:58;32.90;56.10
23283;DHT22;11810;51.178;3.878;2022-08-11T17:16:44;32.70;56.00
23283;DHT22;11810;51.178;3.878;2022-08-11T17:19:25;32.60;55.90
23283;DHT22;11810;51.178;3.878;2022-08-11T17:21:53;32.40;55.70
23283;DHT22;11810;51.178;3.878;2022-08-11T17:24:43;32.30;56.00
23283;DHT22;11810;51.178;3.878;2022-08-11T17:27:12;32.10;56.90
23283;DHT22;11810;51.178;3.878;2022-08-11T17:29:56;32.00;56.50
23283;DHT22;11810;51.178;3.878;2022-08-11T17:35:17;31.80;57.00
23283;DHT22;11810;51.178;3.878;2022-08-11T17:38:13;31.80;57.00
23283;DHT22;11810;51.178;3.878;2022-08-11T17:40:51;31.70;57.00
23283;DHT22;11810;51.178;3.878;2022-08-11T17:43:52;31.60;57.20
23283;DHT22;11810;51.178;3.878;2022-08-11T17:46:38;31.50;57.40
23283;DHT22;11810;51.178;3.878;2022-08-11T17:49:24;31.40;57.50
23283;DHT22;11810;51.178;3.878;2022-08-11T17:51:52;31.40;57.70
23283;DHT22;11810;51.178;3.878;2022-08-11T17:54:38;31.30;57.60
23283;DHT22;11810;51.178;3.878;2022-08-11T17:57:25;31.30;57.90
23283;DHT22;11810;51.178;3.878;2022-08-11T18:00:09;31.10;58.30
23283;DHT22;11810;51.178;3.878;2022-08-11T18:02:42;31.10;58.50
23283;DHT22;11810;51.178;3.878;2022-08-11T18:05:32;30.90;59.00
23283;DHT22;11810;51.178;3.878;2022-08-11T18:08:02;31.00;59.20
23283;DHT22;11810;51.178;3.878;2022-08-11T18:10:47;31.00;59.30
23283;DHT22;11810;51.178;3.878;2022-08-11T18:13:35;30.90;59.60
23283;DHT22;11810;51.178;3.878;2022-08-11T18:16:20;30.80;59.90
23283;DHT22;11810;51.178;3.878;2022-08-11T18:19:08;30.60;60.10
23283;DHT22;11810;51.178;3.878;2022-08-11T18:22:00;30.60;60.10
23283;DHT22;11810;51.178;3.878;2022-08-11T18:24:50;30.40;60.50
23283;DHT22;11810;51.178;3.878;2022-08-11T18:27:39;30.40;60.90
23283;DHT22;11810;51.178;3.878;2022-08-11T18:30:25;30.20;61.30
23283;DHT22;11810;51.178;3.878;2022-08-11T18:33:13;29.90;61.90
23283;DHT22;11810;51.178;3.878;2022-08-11T18:35:59;29.70;62.50
23283;DHT22;11810;51.178;3.878;2022-08-11T18:38:46;29.60;62.80
23283;DHT22;11810;51.178;3.878;2022-08-11T18:41:34;29.50;63.10
23283;DHT22;11810;51.178;3.878;2022-08-11T18:44:21;29.30;63.80
23283;DHT22;11810;51.178;3.878;2022-08-11T18:47:10;29.30;64.20
23283;DHT22;11810;51.178;3.878;2022-08-11T18:49:58;29.10;64.80
23283;DHT22;11810;51.178;3.878;2022-08-11T18:52:44;28.90;65.30
23283;DHT22;11810;51.178;3.878;2022-08-11T18:55:30;28.80;66.10
23283;DHT22;11810;51.178;3.878;2022-08-11T18:58:20;28.70;66.70
23283;DHT22;11810;51.178;3.878;2022-08-11T19:01:07;28.60;67.30
23283;DHT22;11810;51.178;3.878;2022-08-11T19:03:54;28.40;67.20
23283;DHT22;11810;51.178;3.878;2022-08-11T19:06:41;28.30;67.60
23283;DHT22;11810;51.178;3.878;2022-08-11T19:09:27;28.10;68.20
23283;DHT22;11810;51.178;3.878;2022-08-11T19:12:13;28.00;69.50
23283;DHT22;11810;51.178;3.878;2022-08-11T19:14:59;27.80;70.20
23283;DHT22;11810;51.178;3.878;2022-08-11T19:17:44;27.60;71.10
23283;DHT22;11810;51.178;3.878;2022-08-11T19:20:31;27.40;72.50
23283;DHT22;11810;51.178;3.878;2022-08-11T19:23:20;27.10;73.80
23283;DHT22;11810;51.178;3.878;2022-08-11T19:26:08;27.00;75.10
23283;DHT22;11810;51.178;3.878;2022-08-11T19:28:54;26.80;76.10
23283;DHT22;11810;51.178;3.878;2022-08-11T19:31:39;26.60;76.80
23283;DHT22;11810;51.178;3.878;2022-08-11T19:34:25;26.40;77.70
23283;DHT22;11810;51.178;3.878;2022-08-11T19:37:10;26.30;78.60
23283;DHT22;11810;51.178;3.878;2022-08-11T19:40:06;26.10;79.50
23283;DHT22;11810;51.178;3.878;2022-08-11T19:42:51;26.10;79.80
23283;DHT22;11810;51.178;3.878;2022-08-11T19:45:37;25.80;82.00
23283;DHT22;11810;51.178;3.878;2022-08-11T19:48:24;25.70;82.20
23283;DHT22;11810;51.178;3.878;2022-08-11T19:51:10;25.60;83.30
23283;DHT22;11810;51.178;3.878;2022-08-11T19:53:56;25.40;83.70
23283;DHT22;11810;51.178;3.878;2022-08-11T19:56:41;25.20;85.10
23283;DHT22;11810;51.178;3.878;2022-08-11T19:59:26;25.10;85.90
23283;DHT22;11810;51.178;3.878;2022-08-11T20:02:11;24.90;86.90
23283;DHT22;11810;51.178;3.878;2022-08-11T20:04:56;24.80;88.60
23283;DHT22;11810;51.178;3.878;2022-08-11T20:07:41;24.70;89.90
23283;DHT22;11810;51.178;3.878;2022-08-11T20:10:26;24.60;90.30
23283;DHT22;11810;51.178;3.878;2022-08-11T20:13:13;24.40;90.80
23283;DHT22;11810;51.178;3.878;2022-08-11T20:15:59;24.30;91.30
23283;DHT22;11810;51.178;3.878;2022-08-11T20:18:46;24.20;91.60
23283;DHT22;11810;51.178;3.878;2022-08-11T20:21:31;24.10;92.30
23283;DHT22;11810;51.178;3.878;2022-08-11T20:24:16;24.10;92.30
23283;DHT22;11810;51.178;3.878;2022-08-11T20:27:02;24.00;92.80
23283;DHT22;11810;51.178;3.878;2022-08-11T20:29:48;23.80;93.70
23283;DHT22;11810;51.178;3.878;2022-08-11T20:32:34;23.80;94.30
23283;DHT22;11810;51.178;3.878;2022-08-11T20:35:20;23.70;95.00
23283;DHT22;11810;51.178;3.878;2022-08-11T20:38:06;23.80;94.90
23283;DHT22;11810;51.178;3.878;2022-08-11T20:40:53;23.80;94.80
23283;DHT22;11810;51.178;3.878;2022-08-11T20:43:39;23.70;95.50
23283;DHT22;11810;51.178;3.878;2022-08-11T20:46:26;23.50;96.60
23283;DHT22;11810;51.178;3.878;2022-08-11T20:49:12;23.40;97.60
23283;DHT22;11810;51.178;3.878;2022-08-11T20:51:59;23.30;98.20